Addisleigh Park, NY

6:13 AM EST on March 02, 2015 (GMT -0500)
Ozone Park | Change Station
CLOSE
Current Station
Personal Weather Station
Location: New York, NY
Elevation: 33 ft
Nearby Weather Stations

Elev 33 ft 40.68 °N, 73.85 °W | Updated 5 minutes ago

Overcast
Overcast
29.7 °F
Feels Like 30 °F
N
0.0
Wind Variable Wind from WSW

Today
High -- | Low -- °F
--% Chance of Precip.
Yesterday
High -- | Low -- °F
Precip. -- in
6:27 AM 5:47 PM
Waxing Gibbous, 91% visible
Pressure 30.03 in
Visibility 6.0 miles
Clouds Overcast 7000 ft
Windchill 30 °F
Dew Point 28 °F
Humidity 94%
Rainfall 0.00 in
Snow Depth Not available.
UV 0 out of 12
Pollen .50 out of 12
Air Quality Not available.
Flu Activity Not available.
METAR KJFK 021051Z 26004KT 6SM BR OVC070 M01/M03 A3003 RMK AO2 SLP168 T10111033 $

More Conditions Fewer Conditions

Pressure 30.03 in
Visibility 6.0 miles
Clouds Overcast 7000 ft
Windchill 30 °F
Dew Point 28 °F
Humidity 94%
Rainfall 0.00 in
Snow Depth Not available.
UV 0 out of 12
Pollen .50 out of 12
Air Quality Not available.
Flu Activity Not available.
METAR KJFK 021051Z 26004KT 6SM BR OVC070 M01/M03 A3003 RMK AO2 SLP168 T10111033 $

More Conditions Fewer Conditions

10-Day Weather Forecast

Almanac

Astronomy

Mar. 02, 2015 Rise Set
Actual Time
Civil Twilight
Nautical Twilight
Astronomical Twilight
Moon
Length of Visible Light
Length of Day
Tomorrow will be .
, % of the Moon is Illuminated

Today's Extremes

State Highs State Lows

Community

WunderPhotos

Upload Photos

1,801,756 photos uploaded!

WunderBlogs® & News

Nearby

Air Quality

  Air Quality AQ Index Pollutant
Not available.

Snow Depth

Station Depth Elevation

Earthquake Activity

City Distance Mag. Time & Date
Minimum magnitude displayed is 2.5.

Coastal Water Temperatures

Place Temperature

Nearby Weather Stations